sensor_id;sensor_type;location;lat;lon;timestamp;pressure;altitude;pressure_sealevel;temperature;humidity
41078;BME280;26823;42.662;23.352;2024-03-06T00:02:25;157722.44;;;6.18;88.61
41078;BME280;26823;42.662;23.352;2024-03-06T00:04:51;157752.00;;;6.29;88.76
41078;BME280;26823;42.662;23.352;2024-03-06T00:07:16;157749.34;;;6.28;89.22
41078;BME280;26823;42.662;23.352;2024-03-06T00:09:42;157747.97;;;6.28;89.25
41078;BME280;26823;42.662;23.352;2024-03-06T00:12:08;157746.66;;;6.27;89.11
41078;BME280;26823;42.662;23.352;2024-03-06T00:14:33;157746.66;;;6.27;88.92
41078;BME280;26823;42.662;23.352;2024-03-06T00:17:01;157695.59;;;6.08;88.60
41078;BME280;26823;42.662;23.352;2024-03-06T00:19:29;157734.56;;;6.23;88.64
41078;BME280;26823;42.662;23.352;2024-03-06T00:21:55;157696.97;;;6.08;88.95
41078;BME280;26823;42.662;23.352;2024-03-06T00:24:21;157676.81;;;6.00;89.12
41078;BME280;26823;42.662;23.352;2024-03-06T00:26:48;157695.59;;;6.08;89.06
41078;BME280;26823;42.662;23.352;2024-03-06T00:29:13;157671.44;;;5.98;89.81
41078;BME280;26823;42.662;23.352;2024-03-06T00:31:43;157656.59;;;5.93;89.90
41078;BME280;26823;42.662;23.352;2024-03-06T00:34:10;157639.13;;;5.86;90.13
41078;BME280;26823;42.662;23.352;2024-03-06T00:36:36;157643.16;;;5.87;90.54
41078;BME280;26823;42.662;23.352;2024-03-06T00:39:02;157633.75;;;5.84;90.54
41078;BME280;26823;42.662;23.352;2024-03-06T00:41:30;157636.44;;;5.85;90.53
41078;BME280;26823;42.662;23.352;2024-03-06T00:43:55;157635.13;;;5.84;90.70
41078;BME280;26823;42.662;23.352;2024-03-06T00:46:21;157621.69;;;5.79;90.66
41078;BME280;26823;42.662;23.352;2024-03-06T00:48:46;157623.00;;;5.80;91.01
41078;BME280;26823;42.662;23.352;2024-03-06T00:51:12;157625.72;;;5.81;90.58
41078;BME280;26823;42.662;23.352;2024-03-06T00:53:37;157624.38;;;5.80;90.84
41078;BME280;26823;42.662;23.352;2024-03-06T00:56:03;157614.97;;;5.77;90.56
41078;BME280;26823;42.662;23.352;2024-03-06T00:58:28;157616.31;;;5.77;90.78
41078;BME280;26823;42.662;23.352;2024-03-06T01:00:53;157598.84;;;5.70;90.93
41078;BME280;26823;42.662;23.352;2024-03-06T01:03:19;157585.44;;;5.65;91.33
41078;BME280;26823;42.662;23.352;2024-03-06T01:05:45;157580.03;;;5.63;91.33
41078;BME280;26823;42.662;23.352;2024-03-06T01:08:11;157569.31;;;5.59;91.39
41078;BME280;26823;42.662;23.352;2024-03-06T01:10:36;157533.06;;;5.45;91.77
41078;BME280;26823;42.662;23.352;2024-03-06T01:13:02;157527.69;;;5.43;91.52
41078;BME280;26823;42.662;23.352;2024-03-06T01:15:27;157507.53;;;5.35;92.05
41078;BME280;26823;42.662;23.352;2024-03-06T01:17:53;157495.50;;;5.31;92.28
41078;BME280;26823;42.662;23.352;2024-03-06T01:20:18;157484.72;;;5.27;92.50
41078;BME280;26823;42.662;23.352;2024-03-06T01:22:45;157476.69;;;5.23;93.05
41078;BME280;26823;42.662;23.352;2024-03-06T01:25:11;157471.31;;;5.21;93.64
41078;BME280;26823;42.662;23.352;2024-03-06T01:27:37;157456.56;;;5.16;93.62
41078;BME280;26823;42.662;23.352;2024-03-06T01:30:03;157469.97;;;5.21;93.56
41078;BME280;26823;42.662;23.352;2024-03-06T01:32:29;157474.00;;;5.22;93.48
41078;BME280;26823;42.662;23.352;2024-03-06T01:34:54;157465.97;;;5.19;93.44
41078;BME280;26823;42.662;23.352;2024-03-06T01:37:20;157465.97;;;5.19;93.49
41078;BME280;26823;42.662;23.352;2024-03-06T01:39:45;157474.00;;;5.22;93.11
41078;BME280;26823;42.662;23.352;2024-03-06T01:42:10;157432.34;;;5.06;93.96
41078;BME280;26823;42.662;23.352;2024-03-06T01:44:36;157440.44;;;5.10;93.60
41078;BME280;26823;42.662;23.352;2024-03-06T01:47:01;157439.06;;;5.09;93.67
41078;BME280;26823;42.662;23.352;2024-03-06T01:49:27;157443.13;;;5.11;93.80
41078;BME280;26823;42.662;23.352;2024-03-06T01:51:54;157440.44;;;5.10;94.13
41078;BME280;26823;42.662;23.352;2024-03-06T01:54:21;157432.34;;;5.06;93.76
41078;BME280;26823;42.662;23.352;2024-03-06T01:56:47;157423.00;;;5.03;93.64
41078;BME280;26823;42.662;23.352;2024-03-06T01:59:20;157425.66;;;5.04;94.26
41078;BME280;26823;42.662;23.352;2024-03-06T02:01:46;157414.94;;;5.00;93.62
41078;BME280;26823;42.662;23.352;2024-03-06T02:04:13;157396.13;;;4.93;93.78
41078;BME280;26823;42.662;23.352;2024-03-06T02:06:39;157393.47;;;4.92;94.24
41078;BME280;26823;42.662;23.352;2024-03-06T02:09:05;157394.81;;;4.92;94.35
41078;BME280;26823;42.662;23.352;2024-03-06T02:11:32;157381.38;;;4.87;94.63
41078;BME280;26823;42.662;23.352;2024-03-06T02:13:57;157378.69;;;4.86;94.69
41078;BME280;26823;42.662;23.352;2024-03-06T02:16:23;157367.97;;;4.82;94.82
41078;BME280;26823;42.662;23.352;2024-03-06T02:18:55;157374.69;;;4.84;94.76
41078;BME280;26823;42.662;23.352;2024-03-06T02:21:22;157372.00;;;4.83;94.35
41078;BME280;26823;42.662;23.352;2024-03-06T02:23:48;157366.59;;;4.81;94.89
41078;BME280;26823;42.662;23.352;2024-03-06T02:26:15;157349.16;;;4.74;94.36
41078;BME280;26823;42.662;23.352;2024-03-06T02:28:53;157295.50;;;4.54;94.81
41078;BME280;26823;42.662;23.352;2024-03-06T02:31:19;157180.16;;;4.10;96.92
41078;BME280;26823;42.662;23.352;2024-03-06T02:33:49;157157.34;;;4.01;97.22
41078;BME280;26823;42.662;23.352;2024-03-06T02:36:16;157123.81;;;3.88;97.98
41078;BME280;26823;42.662;23.352;2024-03-06T02:38:45;157126.53;;;3.89;98.10
41078;BME280;26823;42.662;23.352;2024-03-06T02:41:11;157106.34;;;3.81;98.66
41078;BME280;26823;42.662;23.352;2024-03-06T02:43:37;157109.03;;;3.82;99.37
41078;BME280;26823;42.662;23.352;2024-03-06T02:46:03;157138.56;;;3.94;99.20
41078;BME280;26823;42.662;23.352;2024-03-06T02:48:29;157127.84;;;3.89;98.72
41078;BME280;26823;42.662;23.352;2024-03-06T02:50:55;157154.66;;;4.00;98.64
41078;BME280;26823;42.662;23.352;2024-03-06T02:53:20;157125.16;;;3.88;98.17
41078;BME280;26823;42.662;23.352;2024-03-06T02:55:45;157156.03;;;4.00;98.15
41078;BME280;26823;42.662;23.352;2024-03-06T02:58:11;157151.97;;;3.99;98.42
41078;BME280;26823;42.662;23.352;2024-03-06T03:00:36;157160.03;;;4.02;97.89
41078;BME280;26823;42.662;23.352;2024-03-06T03:03:02;157162.72;;;4.03;97.74
41078;BME280;26823;42.662;23.352;2024-03-06T03:05:27;157169.44;;;4.05;97.61
41078;BME280;26823;42.662;23.352;2024-03-06T03:07:53;157165.38;;;4.04;96.67
41078;BME280;26823;42.662;23.352;2024-03-06T03:10:18;157149.28;;;3.98;97.01
41078;BME280;26823;42.662;23.352;2024-03-06T03:12:44;157156.03;;;4.00;96.80
41078;BME280;26823;42.662;23.352;2024-03-06T03:15:10;157154.66;;;4.00;96.61
41078;BME280;26823;42.662;23.352;2024-03-06T03:17:36;157160.03;;;4.02;96.13
41078;BME280;26823;42.662;23.352;2024-03-06T03:20:02;157151.97;;;3.99;96.46
41078;BME280;26823;42.662;23.352;2024-03-06T03:22:39;157166.75;;;4.04;96.01
41078;BME280;26823;42.662;23.352;2024-03-06T03:25:12;157158.66;;;4.01;96.49
41078;BME280;26823;42.662;23.352;2024-03-06T03:27:39;157149.28;;;3.98;95.93
41078;BME280;26823;42.662;23.352;2024-03-06T03:30:11;157150.63;;;3.98;96.42
41078;BME280;26823;42.662;23.352;2024-03-06T03:32:37;157141.25;;;3.95;96.05
41078;BME280;26823;42.662;23.352;2024-03-06T03:35:06;157156.03;;;4.00;96.15
41078;BME280;26823;42.662;23.352;2024-03-06T03:37:32;157150.63;;;3.98;95.59
41078;BME280;26823;42.662;23.352;2024-03-06T03:39:58;157151.97;;;3.99;96.22
41078;BME280;26823;42.662;23.352;2024-03-06T03:42:24;157130.53;;;3.90;96.09
41078;BME280;26823;42.662;23.352;2024-03-06T03:44:49;157131.84;;;3.91;96.24
41078;BME280;26823;42.662;23.352;2024-03-06T03:47:15;157142.56;;;3.95;96.27
41078;BME280;26823;42.662;23.352;2024-03-06T03:49:40;157142.56;;;3.95;96.15
41078;BME280;26823;42.662;23.352;2024-03-06T03:52:06;157137.22;;;3.93;95.70
41078;BME280;26823;42.662;23.352;2024-03-06T03:54:31;157118.44;;;3.86;96.37
41078;BME280;26823;42.662;23.352;2024-03-06T03:56:57;157126.53;;;3.89;96.26
41078;BME280;26823;42.662;23.352;2024-03-06T03:59:25;157133.22;;;3.91;95.83
41078;BME280;26823;42.662;23.352;2024-03-06T04:01:50;157122.47;;;3.87;95.84
41078;BME280;26823;42.662;23.352;2024-03-06T04:04:15;157109.03;;;3.82;95.78
41078;BME280;26823;42.662;23.352;2024-03-06T04:06:41;157103.72;;;3.80;95.94
41078;BME280;26823;42.662;23.352;2024-03-06T04:09:06;157101.03;;;3.79;95.93
41078;BME280;26823;42.662;23.352;2024-03-06T04:11:36;157091.63;;;3.75;96.27
41078;BME280;26823;42.662;23.352;2024-03-06T04:14:04;157099.66;;;3.79;96.62
41078;BME280;26823;42.662;23.352;2024-03-06T04:16:32;157098.34;;;3.78;96.14
41078;BME280;26823;42.662;23.352;2024-03-06T04:18:57;157094.31;;;3.77;96.22
41078;BME280;26823;42.662;23.352;2024-03-06T04:21:22;157078.22;;;3.70;96.76
41078;BME280;26823;42.662;23.352;2024-03-06T04:23:48;157079.53;;;3.71;96.17
41078;BME280;26823;42.662;23.352;2024-03-06T04:26:14;157054.09;;;3.61;96.21
41078;BME280;26823;42.662;23.352;2024-03-06T04:28:39;157038.00;;;3.55;96.57
41078;BME280;26823;42.662;23.352;2024-03-06T04:31:05;157033.94;;;3.53;96.35
41078;BME280;26823;42.662;23.352;2024-03-06T04:33:31;157032.63;;;3.53;96.75
41078;BME280;26823;42.662;23.352;2024-03-06T04:35:56;157021.91;;;3.49;96.55
41078;BME280;26823;42.662;23.352;2024-03-06T04:38:22;157013.84;;;3.46;96.47
41078;BME280;26823;42.662;23.352;2024-03-06T04:40:47;156991.06;;;3.37;97.07
41078;BME280;26823;42.662;23.352;2024-03-06T04:43:13;156995.13;;;3.38;98.05
41078;BME280;26823;42.662;23.352;2024-03-06T04:45:38;157003.13;;;3.41;97.92
41078;BME280;26823;42.662;23.352;2024-03-06T04:48:04;157007.16;;;3.43;97.55
41078;BME280;26823;42.662;23.352;2024-03-06T04:50:30;157015.22;;;3.46;98.29
41078;BME280;26823;42.662;23.352;2024-03-06T04:52:56;157031.31;;;3.52;98.06
41078;BME280;26823;42.662;23.352;2024-03-06T04:55:21;157035.31;;;3.54;97.41
41078;BME280;26823;42.662;23.352;2024-03-06T04:57:48;157008.53;;;3.43;97.13
41078;BME280;26823;42.662;23.352;2024-03-06T05:00:14;157013.84;;;3.46;97.74
41078;BME280;26823;42.662;23.352;2024-03-06T05:02:41;157007.16;;;3.43;97.47
41078;BME280;26823;42.662;23.352;2024-03-06T05:05:07;156993.75;;;3.38;97.58
41078;BME280;26823;42.662;23.352;2024-03-06T05:07:33;156991.06;;;3.37;97.91
41078;BME280;26823;42.662;23.352;2024-03-06T05:09:59;157008.53;;;3.43;97.73
41078;BME280;26823;42.662;23.352;2024-03-06T05:12:27;157005.81;;;3.42;97.83
41078;BME280;26823;42.662;23.352;2024-03-06T05:14:54;157028.63;;;3.51;98.11
41078;BME280;26823;42.662;23.352;2024-03-06T05:17:19;156988.41;;;3.36;97.25
41078;BME280;26823;42.662;23.352;2024-03-06T05:19:46;157052.75;;;3.61;96.74
41078;BME280;26823;42.662;23.352;2024-03-06T05:22:13;157079.53;;;3.71;97.00
41078;BME280;26823;42.662;23.352;2024-03-06T05:24:39;157097.00;;;3.78;96.79
41078;BME280;26823;42.662;23.352;2024-03-06T05:27:04;157101.03;;;3.79;96.17
41078;BME280;26823;42.662;23.352;2024-03-06T05:29:30;157099.66;;;3.79;95.74
41078;BME280;26823;42.662;23.352;2024-03-06T05:31:55;157118.44;;;3.86;96.04
41078;BME280;26823;42.662;23.352;2024-03-06T05:34:22;157147.94;;;3.97;95.96
41078;BME280;26823;42.662;23.352;2024-03-06T05:36:47;157180.16;;;4.10;95.78
41078;BME280;26823;42.662;23.352;2024-03-06T05:39:13;157212.34;;;4.22;95.17
41078;BME280;26823;42.662;23.352;2024-03-06T05:41:40;157236.47;;;4.31;94.74
41078;BME280;26823;42.662;23.352;2024-03-06T05:44:06;157252.59;;;4.37;93.94
41078;BME280;26823;42.662;23.352;2024-03-06T05:46:31;157274.03;;;4.46;93.94
41078;BME280;26823;42.662;23.352;2024-03-06T05:48:57;157295.50;;;4.54;93.32
41078;BME280;26823;42.662;23.352;2024-03-06T05:51:23;157311.63;;;4.60;93.29
41078;BME280;26823;42.662;23.352;2024-03-06T05:53:48;157329.03;;;4.67;92.96
41078;BME280;26823;42.662;23.352;2024-03-06T05:56:14;157346.47;;;4.73;92.50
41078;BME280;26823;42.662;23.352;2024-03-06T05:58:39;157307.59;;;4.59;92.55
41078;BME280;26823;42.662;23.352;2024-03-06T06:01:05;157288.81;;;4.51;92.11
41078;BME280;26823;42.662;23.352;2024-03-06T06:03:30;157376.00;;;4.85;92.98
41078;BME280;26823;42.662;23.352;2024-03-06T06:05:56;157359.88;;;4.79;92.90
41078;BME280;26823;42.662;23.352;2024-03-06T06:08:22;157408.22;;;4.97;92.29
41078;BME280;26823;42.662;23.352;2024-03-06T06:10:48;157425.66;;;5.04;92.01
41078;BME280;26823;42.662;23.352;2024-03-06T06:13:13;157443.13;;;5.11;92.02
41078;BME280;26823;42.662;23.352;2024-03-06T06:15:40;157455.19;;;5.15;92.01
41078;BME280;26823;42.662;23.352;2024-03-06T06:18:05;157476.69;;;5.23;91.12
41078;BME280;26823;42.662;23.352;2024-03-06T06:20:31;157465.97;;;5.19;90.02
41078;BME280;26823;42.662;23.352;2024-03-06T06:22:56;157455.19;;;5.15;90.29
41078;BME280;26823;42.662;23.352;2024-03-06T06:25:22;157435.06;;;5.07;90.30
41078;BME280;26823;42.662;23.352;2024-03-06T06:27:48;157408.22;;;4.97;90.38
41078;BME280;26823;42.662;23.352;2024-03-06T06:30:15;157474.00;;;5.22;90.41
41078;BME280;26823;42.662;23.352;2024-03-06T06:32:42;157582.75;;;5.64;89.47
41078;BME280;26823;42.662;23.352;2024-03-06T06:35:08;157670.00;;;5.98;87.18
41078;BME280;26823;42.662;23.352;2024-03-06T06:37:35;157770.81;;;6.36;85.35
41078;BME280;26823;42.662;23.352;2024-03-06T06:40:01;157851.41;;;6.67;83.59
41078;BME280;26823;42.662;23.352;2024-03-06T06:42:32;157932.09;;;6.98;81.58
41078;BME280;26823;42.662;23.352;2024-03-06T06:44:58;158007.38;;;7.27;80.47
41078;BME280;26823;42.662;23.352;2024-03-06T06:47:24;158058.44;;;7.47;78.53
41078;BME280;26823;42.662;23.352;2024-03-06T06:49:49;158105.47;;;7.65;77.15
41078;BME280;26823;42.662;23.352;2024-03-06T06:52:15;158132.41;;;7.75;75.80
41078;BME280;26823;42.662;23.352;2024-03-06T06:54:41;158186.19;;;7.96;76.09
41078;BME280;26823;42.662;23.352;2024-03-06T06:57:06;158270.97;;;8.28;74.98
41078;BME280;26823;42.662;23.352;2024-03-06T06:59:31;158423.06;;;8.87;72.83
41078;BME280;26823;42.662;23.352;2024-03-06T07:01:57;158525.31;;;9.26;70.80
41078;BME280;26823;42.662;23.352;2024-03-06T07:04:22;158592.66;;;9.52;67.56
41078;BME280;26823;42.662;23.352;2024-03-06T07:06:49;158688.28;;;9.88;67.86
41078;BME280;26823;42.662;23.352;2024-03-06T07:09:15;158789.28;;;10.27;65.56
41078;BME280;26823;42.662;23.352;2024-03-06T07:11:41;158906.56;;;10.72;63.72
41078;BME280;26823;42.662;23.352;2024-03-06T07:14:08;159000.88;;;11.08;62.51
41078;BME280;26823;42.662;23.352;2024-03-06T07:16:33;159000.88;;;11.08;60.78
41078;BME280;26823;42.662;23.352;2024-03-06T07:18:58;159087.16;;;11.41;60.13
41078;BME280;26823;42.662;23.352;2024-03-06T07:21:25;159114.13;;;11.51;59.37
41078;BME280;26823;42.662;23.352;2024-03-06T07:23:51;159115.50;;;11.52;59.19
41078;BME280;26823;42.662;23.352;2024-03-06T07:26:16;159177.53;;;11.75;58.36
41078;BME280;26823;42.662;23.352;2024-03-06T07:28:42;159178.84;;;11.76;58.01
41078;BME280;26823;42.662;23.352;2024-03-06T07:31:07;159211.22;;;11.88;56.85
41078;BME280;26823;42.662;23.352;2024-03-06T07:33:32;159216.59;;;11.90;56.88
41078;BME280;26823;42.662;23.352;2024-03-06T07:35:59;159266.56;;;12.10;56.86
41078;BME280;26823;42.662;23.352;2024-03-06T07:38:24;159321.88;;;12.31;55.39
41078;BME280;26823;42.662;23.352;2024-03-06T07:40:50;159324.56;;;12.32;55.34
41078;BME280;26823;42.662;23.352;2024-03-06T07:43:16;159404.16;;;12.62;54.79
41078;BME280;26823;42.662;23.352;2024-03-06T07:45:41;159536.44;;;13.13;54.29
41078;BME280;26823;42.662;23.352;2024-03-06T07:48:07;159618.81;;;13.44;52.00
41078;BME280;26823;42.662;23.352;2024-03-06T07:50:33;159729.50;;;13.86;50.86
41078;BME280;26823;42.662;23.352;2024-03-06T07:52:58;159840.28;;;14.29;49.80
41078;BME280;26823;42.662;23.352;2024-03-06T07:55:25;159824.06;;;14.23;48.30
41078;BME280;26823;42.662;23.352;2024-03-06T07:57:50;159894.31;;;14.49;48.58
41078;BME280;26823;42.662;23.352;2024-03-06T08:00:15;159884.84;;;14.46;48.59
41078;BME280;26823;42.662;23.352;2024-03-06T08:02:45;159787.63;;;14.09;49.16
41078;BME280;26823;42.662;23.352;2024-03-06T08:05:15;159737.66;;;13.90;49.88
41078;BME280;26823;42.662;23.352;2024-03-06T08:07:42;159782.19;;;14.07;49.52
41078;BME280;26823;42.662;23.352;2024-03-06T08:10:12;159590.41;;;13.33;50.60
41078;BME280;26823;42.662;23.352;2024-03-06T08:12:42;159670.09;;;13.64;50.46
41078;BME280;26823;42.662;23.352;2024-03-06T08:15:10;159753.81;;;13.96;49.75
41078;BME280;26823;42.662;23.352;2024-03-06T08:17:39;159864.59;;;14.38;48.78
41078;BME280;26823;42.662;23.352;2024-03-06T08:20:05;159801.13;;;14.14;49.06
41078;BME280;26823;42.662;23.352;2024-03-06T08:22:42;159918.59;;;14.59;48.69
41078;BME280;26823;42.662;23.352;2024-03-06T08:25:09;159978.13;;;14.81;47.27
41078;BME280;26823;42.662;23.352;2024-03-06T08:27:36;160244.41;;;15.83;44.71
41078;BME280;26823;42.662;23.352;2024-03-06T08:30:03;160345.84;;;16.22;44.15
41078;BME280;26823;42.662;23.352;2024-03-06T08:32:31;160451.38;;;16.62;42.84
41078;BME280;26823;42.662;23.352;2024-03-06T08:34:58;160405.38;;;16.44;43.11
41078;BME280;26823;42.662;23.352;2024-03-06T08:37:24;160403.97;;;16.44;42.46
41078;BME280;26823;42.662;23.352;2024-03-06T08:39:49;160402.66;;;16.43;42.46
41078;BME280;26823;42.662;23.352;2024-03-06T08:42:15;160333.66;;;16.17;42.39
41078;BME280;26823;42.662;23.352;2024-03-06T08:44:44;160274.16;;;15.94;43.20
41078;BME280;26823;42.662;23.352;2024-03-06T08:47:10;160336.38;;;16.18;43.27
41078;BME280;26823;42.662;23.352;2024-03-06T08:49:35;160432.41;;;16.55;41.72
41078;BME280;26823;42.662;23.352;2024-03-06T08:52:01;160504.06;;;16.82;41.44
41078;BME280;26823;42.662;23.352;2024-03-06T08:54:26;160529.84;;;16.92;41.14
41078;BME280;26823;42.662;23.352;2024-03-06T08:56:52;160528.50;;;16.91;40.32
41078;BME280;26823;42.662;23.352;2024-03-06T08:59:23;160674.66;;;17.47;39.70
41078;BME280;26823;42.662;23.352;2024-03-06T09:01:52;160724.72;;;17.66;40.10
41078;BME280;26823;42.662;23.352;2024-03-06T09:04:17;160757.22;;;17.79;39.40
41078;BME280;26823;42.662;23.352;2024-03-06T09:06:46;160787.00;;;17.90;38.93
41078;BME280;26823;42.662;23.352;2024-03-06T09:09:11;160923.81;;;18.42;37.68
41078;BME280;26823;42.662;23.352;2024-03-06T09:11:40;160898.06;;;18.32;38.33
41078;BME280;26823;42.662;23.352;2024-03-06T09:14:07;160814.13;;;18.00;38.34
41078;BME280;26823;42.662;23.352;2024-03-06T09:16:35;160600.19;;;17.19;40.02
41078;BME280;26823;42.662;23.352;2024-03-06T09:19:00;160570.44;;;17.07;40.16
41078;BME280;26823;42.662;23.352;2024-03-06T09:21:27;160616.44;;;17.25;40.12
41078;BME280;26823;42.662;23.352;2024-03-06T09:23:52;160652.97;;;17.39;39.98
41078;BME280;26823;42.662;23.352;2024-03-06T09:26:18;160632.69;;;17.31;39.07
41078;BME280;26823;42.662;23.352;2024-03-06T09:28:43;160685.47;;;17.51;39.35
41078;BME280;26823;42.662;23.352;2024-03-06T09:31:27;160640.84;;;17.34;38.61
41078;BME280;26823;42.662;23.352;2024-03-06T09:34:16;160650.25;;;17.38;39.40
41078;BME280;26823;42.662;23.352;2024-03-06T09:36:47;160692.22;;;17.54;39.47
41078;BME280;26823;42.662;23.352;2024-03-06T09:39:14;160732.81;;;17.69;38.67
41078;BME280;26823;42.662;23.352;2024-03-06T09:41:44;160827.66;;;18.05;38.06
41078;BME280;26823;42.662;23.352;2024-03-06T09:44:11;160973.91;;;18.61;36.70
41078;BME280;26823;42.662;23.352;2024-03-06T09:46:37;161078.22;;;19.01;35.73
41078;BME280;26823;42.662;23.352;2024-03-06T09:49:03;161061.97;;;18.95;36.17
41078;BME280;26823;42.662;23.352;2024-03-06T09:51:31;161044.31;;;18.88;36.16
41078;BME280;26823;42.662;23.352;2024-03-06T09:53:58;161018.59;;;18.78;36.20
41078;BME280;26823;42.662;23.352;2024-03-06T09:56:23;161044.31;;;18.88;36.13
41078;BME280;26823;42.662;23.352;2024-03-06T09:58:49;161108.03;;;19.12;34.55
41078;BME280;26823;42.662;23.352;2024-03-06T10:01:26;161108.03;;;19.12;34.84
41078;BME280;26823;42.662;23.352;2024-03-06T10:03:53;161181.19;;;19.40;34.21
41078;BME280;26823;42.662;23.352;2024-03-06T10:06:18;161300.50;;;19.85;33.43
41078;BME280;26823;42.662;23.352;2024-03-06T10:08:45;161209.69;;;19.51;33.37
41078;BME280;26823;42.662;23.352;2024-03-06T10:11:12;161213.72;;;19.52;32.94
41078;BME280;26823;42.662;23.352;2024-03-06T10:13:37;161206.97;;;19.50;33.69
41078;BME280;26823;42.662;23.352;2024-03-06T10:16:04;161263.88;;;19.71;33.36
41078;BME280;26823;42.662;23.352;2024-03-06T10:18:33;161271.97;;;19.75;32.61
41078;BME280;26823;42.662;23.352;2024-03-06T10:20:59;161271.97;;;19.75;33.30
41078;BME280;26823;42.662;23.352;2024-03-06T10:23:26;161267.91;;;19.73;33.29
41078;BME280;26823;42.662;23.352;2024-03-06T10:25:53;161234.06;;;19.60;32.20
41078;BME280;26823;42.662;23.352;2024-03-06T10:28:20;161285.53;;;19.80;32.28
41078;BME280;26823;42.662;23.352;2024-03-06T10:30:46;161254.38;;;19.68;32.15
41078;BME280;26823;42.662;23.352;2024-03-06T10:33:16;161194.75;;;19.45;32.15
41078;BME280;26823;42.662;23.352;2024-03-06T10:35:44;161265.19;;;19.72;31.81
41078;BME280;26823;42.662;23.352;2024-03-06T10:38:11;161324.88;;;19.95;31.73
41078;BME280;26823;42.662;23.352;2024-03-06T10:40:38;161488.97;;;20.57;30.42
41078;BME280;26823;42.662;23.352;2024-03-06T10:43:05;161554.06;;;20.82;30.96
41078;BME280;26823;42.662;23.352;2024-03-06T10:45:49;161475.34;;;20.52;30.13
41078;BME280;26823;42.662;23.352;2024-03-06T10:48:17;161479.47;;;20.53;30.53
41078;BME280;26823;42.662;23.352;2024-03-06T10:50:44;161455.03;;;20.44;30.19
41078;BME280;26823;42.662;23.352;2024-03-06T10:53:11;161438.75;;;20.38;29.97
41078;BME280;26823;42.662;23.352;2024-03-06T10:55:38;161544.56;;;20.78;30.40
41078;BME280;26823;42.662;23.352;2024-03-06T10:58:08;161475.34;;;20.52;30.31
41078;BME280;26823;42.662;23.352;2024-03-06T11:00:55;161379.16;;;20.15;30.94
41078;BME280;26823;42.662;23.352;2024-03-06T11:03:23;161445.53;;;20.41;30.38
41078;BME280;26823;42.662;23.352;2024-03-06T11:05:54;161468.56;;;20.49;29.68
41078;BME280;26823;42.662;23.352;2024-03-06T11:08:20;161490.28;;;20.58;30.04
41078;BME280;26823;42.662;23.352;2024-03-06T11:10:46;161567.63;;;20.87;29.37
41078;BME280;26823;42.662;23.352;2024-03-06T11:15:50;161750.78;;;21.57;28.40
41078;BME280;26823;42.662;23.352;2024-03-06T11:23:31;161413.03;;;20.28;29.38
41078;BME280;26823;42.662;23.352;2024-03-06T11:28:26;161384.53;;;20.17;29.92
41078;BME280;26823;42.662;23.352;2024-03-06T11:31:21;161369.66;;;20.12;29.59
41078;BME280;26823;42.662;23.352;2024-03-06T11:33:53;161431.97;;;20.35;29.90
41078;BME280;26823;42.662;23.352;2024-03-06T11:36:26;161529.69;;;20.73;28.40
41078;BME280;26823;42.662;23.352;2024-03-06T11:39:06;161571.69;;;20.89;28.84
41078;BME280;26823;42.662;23.352;2024-03-06T11:41:47;161499.78;;;20.61;29.16
41078;BME280;26823;42.662;23.352;2024-03-06T11:44:20;161536.44;;;20.75;28.64
41078;BME280;26823;42.662;23.352;2024-03-06T11:49:24;161418.41;;;20.30;28.76
41078;BME280;26823;42.662;23.352;2024-03-06T11:51:51;161537.78;;;20.76;28.13
41078;BME280;26823;42.662;23.352;2024-03-06T11:54:17;161465.91;;;20.48;29.11
41078;BME280;26823;42.662;23.352;2024-03-06T11:56:54;161592.00;;;20.96;28.30
41078;BME280;26823;42.662;23.352;2024-03-06T12:01:53;161659.84;;;21.22;27.68
41078;BME280;26823;42.662;23.352;2024-03-06T12:04:20;161758.94;;;21.60;27.66
41078;BME280;26823;42.662;23.352;2024-03-06T12:06:46;161853.91;;;21.96;27.31
41078;BME280;26823;42.662;23.352;2024-03-06T12:09:13;161370.97;;;20.12;28.40
41078;BME280;26823;42.662;23.352;2024-03-06T12:11:39;161105.31;;;19.11;29.92
41078;BME280;26823;42.662;23.352;2024-03-06T12:14:04;161135.13;;;19.22;30.22
41078;BME280;26823;42.662;23.352;2024-03-06T12:16:30;160686.81;;;17.52;32.12
41078;BME280;26823;42.662;23.352;2024-03-06T12:18:57;160343.13;;;16.21;34.44
41078;BME280;26823;42.662;23.352;2024-03-06T12:21:30;160129.50;;;15.39;35.92
41078;BME280;26823;42.662;23.352;2024-03-06T12:24:06;160178.13;;;15.58;35.62
41078;BME280;26823;42.662;23.352;2024-03-06T12:26:32;160421.59;;;16.51;35.44
41078;BME280;26823;42.662;23.352;2024-03-06T12:29:11;160604.28;;;17.20;33.74
41078;BME280;26823;42.662;23.352;2024-03-06T12:31:41;160761.28;;;17.80;32.97
41078;BME280;26823;42.662;23.352;2024-03-06T12:34:08;160881.81;;;18.26;32.07
41078;BME280;26823;42.662;23.352;2024-03-06T12:36:34;160961.69;;;18.56;32.75
41078;BME280;26823;42.662;23.352;2024-03-06T12:39:02;160973.91;;;18.61;31.24
41078;BME280;26823;42.662;23.352;2024-03-06T12:41:29;160923.81;;;18.42;31.14
41078;BME280;26823;42.662;23.352;2024-03-06T12:43:55;160908.88;;;18.36;31.33
41078;BME280;26823;42.662;23.352;2024-03-06T12:46:22;160804.66;;;17.97;31.72
41078;BME280;26823;42.662;23.352;2024-03-06T12:48:48;160777.53;;;17.86;33.01
41078;BME280;26823;42.662;23.352;2024-03-06T12:51:13;160743.69;;;17.73;37.75
41078;BME280;26823;42.662;23.352;2024-03-06T12:53:39;160613.72;;;17.24;37.45
41078;BME280;26823;42.662;23.352;2024-03-06T12:56:05;160291.78;;;16.01;40.00
41078;BME280;26823;42.662;23.352;2024-03-06T12:58:31;160087.56;;;15.23;41.51
41078;BME280;26823;42.662;23.352;2024-03-06T13:00:57;160043.00;;;15.06;42.98